Terminal Aerodrome Forecast
Issued by NWS

Current Version | Previous Version | Graphics & Text | Print | Product List | Glossary On
Versions: 1 2 3 4 5 6 7 8 9 10 11 12 13 14 15 16 17 18 19
000
FTUS41 KRNK 250803 AAA
TAFLWB
TAF AMD
KLWB 250803Z 2508/2606 00000KT P6SM SCT040
     FM250900 00000KT 2SM BR SKC
      TEMPO 2510/2512 1/2SM FG OVC001
     FM251300 VRB03KT P6SM SCT150=

USA.gov is the U.S. government's official web portal to all federal, state and local government web resources and services.